createdAt,value
2022-12-24T00:01:13.273Z,98.42
2022-12-24T00:06:44.869Z,97.65
2022-12-24T00:12:16.392Z,97.83
2022-12-24T00:17:52.616Z,98.32
2022-12-24T00:23:24.304Z,98.02
2022-12-24T00:28:56.232Z,97.86
2022-12-24T00:34:27.786Z,96.65
2022-12-24T00:39:59.491Z,96.75
2022-12-24T00:45:31.289Z,96.83
2022-12-24T00:51:02.998Z,96.18
2022-12-24T00:56:34.641Z,95.65
2022-12-24T01:02:06.587Z,95.89
2022-12-24T01:07:38.059Z,96.12
2022-12-24T01:13:09.856Z,99.07
2022-12-24T01:18:48.131Z,100.0
2022-12-24T01:24:19.876Z,100.0
2022-12-24T01:29:51.489Z,100.0
2022-12-24T01:35:23.180Z,100.0
2022-12-24T01:40:54.814Z,100.0
2022-12-24T01:46:26.744Z,100.0
2022-12-24T01:51:58.336Z,100.0
2022-12-24T01:57:30.244Z,100.0
2022-12-24T02:03:02.085Z,100.0
2022-12-24T02:08:33.585Z,100.0
2022-12-24T02:14:05.201Z,100.0
2022-12-24T02:19:41.281Z,100.0
2022-12-24T02:25:12.992Z,100.0
2022-12-24T02:30:45.263Z,100.0
2022-12-24T02:36:16.448Z,100.0
2022-12-24T02:41:48.180Z,100.0
2022-12-24T02:47:19.892Z,100.0
2022-12-24T02:52:51.729Z,100.0
2022-12-24T02:58:23.342Z,100.0
2022-12-24T03:03:55.071Z,100.0
2022-12-24T03:09:26.799Z,100.0
2022-12-24T03:14:58.542Z,100.0
2022-12-24T03:20:34.787Z,100.0
2022-12-24T03:26:06.666Z,100.0
2022-12-24T03:31:38.211Z,100.0
2022-12-24T03:37:09.788Z,100.0
2022-12-24T03:42:41.811Z,100.0
2022-12-24T03:48:13.327Z,100.0
2022-12-24T03:53:44.991Z,100.0
2022-12-24T03:59:16.780Z,100.0
2022-12-24T04:04:48.414Z,100.0
2022-12-24T04:10:20.194Z,100.0
2022-12-24T04:15:51.927Z,100.0
2022-12-24T04:21:30.064Z,100.0
2022-12-24T04:27:01.670Z,100.0
2022-12-24T04:32:33.473Z,100.0
2022-12-24T04:38:05.298Z,100.0
2022-12-24T04:43:36.920Z,100.0
2022-12-24T04:49:08.569Z,100.0
2022-12-24T04:54:40.326Z,100.0
2022-12-24T05:00:12.330Z,100.0
2022-12-24T05:05:43.682Z,100.0
2022-12-24T05:11:15.444Z,100.0
2022-12-24T05:16:47.371Z,100.0
2022-12-24T05:22:25.304Z,100.0
2022-12-24T05:27:57.288Z,100.0
2022-12-24T05:33:28.952Z,100.0
2022-12-24T05:39:00.600Z,100.0
2022-12-24T05:44:32.197Z,100.0
2022-12-24T05:50:03.900Z,100.0
2022-12-24T05:55:36.120Z,100.0
2022-12-24T06:01:07.531Z,100.0
2022-12-24T06:06:39.174Z,100.0
2022-12-24T06:12:11.892Z,100.0
2022-12-24T06:17:42.612Z,100.0
2022-12-24T06:23:21.608Z,100.0
2022-12-24T06:28:52.437Z,100.0
2022-12-24T06:34:24.097Z,100.0
2022-12-24T06:39:56.019Z,100.0
2022-12-24T06:45:27.566Z,100.0
2022-12-24T06:50:59.206Z,100.0
2022-12-24T06:56:31.005Z,100.0
2022-12-24T07:02:02.927Z,100.0
2022-12-24T07:07:34.642Z,100.0
2022-12-24T07:13:06.131Z,100.0
2022-12-24T07:18:37.811Z,100.0
2022-12-24T07:24:15.888Z,100.0
2022-12-24T07:29:47.668Z,100.0
2022-12-24T07:35:19.464Z,100.0
2022-12-24T07:40:51.211Z,100.0
2022-12-24T07:46:22.907Z,100.0
2022-12-24T07:51:54.549Z,100.0
2022-12-24T07:57:26.237Z,100.0
2022-12-24T08:02:58.284Z,100.0
2022-12-24T08:08:29.741Z,100.0
2022-12-24T08:14:01.681Z,100.0
2022-12-24T08:19:33.220Z,100.0
2022-12-24T08:25:09.707Z,100.0
2022-12-24T08:30:41.359Z,100.0
2022-12-24T08:36:12.947Z,100.0
2022-12-24T08:41:44.590Z,100.0
2022-12-24T08:47:16.257Z,100.0
2022-12-24T08:52:48.047Z,100.0
2022-12-24T08:58:19.705Z,100.0
2022-12-24T09:03:51.750Z,100.0
2022-12-24T09:09:23.417Z,100.0
2022-12-24T09:15:03.623Z,100.0
2022-12-24T09:20:26.607Z,100.0
2022-12-24T09:26:02.844Z,99.32
2022-12-24T09:31:34.666Z,98.45
2022-12-24T09:37:06.135Z,97.88
2022-12-24T09:42:37.898Z,97.34
2022-12-24T09:48:09.723Z,98.33
2022-12-24T09:53:41.405Z,96.5
2022-12-24T09:59:13.034Z,96.1
2022-12-24T10:04:45.538Z,97.22
2022-12-24T10:10:16.425Z,97.53
2022-12-24T10:15:48.155Z,96.92
2022-12-24T10:21:19.903Z,96.56
2022-12-24T10:26:56.035Z,98.01
2022-12-24T10:32:27.759Z,98.01
2022-12-24T10:37:59.510Z,98.07
2022-12-24T10:43:31.206Z,97.8
2022-12-24T10:49:03.025Z,97.95
2022-12-24T10:54:34.886Z,97.86
2022-12-24T11:00:06.498Z,97.63
2022-12-24T11:05:38.335Z,96.25
2022-12-24T11:11:09.984Z,95.28
2022-12-24T11:16:41.455Z,94.51
2022-12-24T11:22:13.303Z,95.0
2022-12-24T11:27:49.355Z,95.23
2022-12-24T11:33:21.368Z,94.8
2022-12-24T11:38:52.872Z,95.58
2022-12-24T11:44:24.503Z,95.94
2022-12-24T11:50:18.764Z,96.16
2022-12-24T11:55:27.908Z,96.7
2022-12-24T12:00:59.682Z,96.74
2022-12-24T12:06:31.335Z,98.28
2022-12-24T12:12:03.382Z,100.0
2022-12-24T12:17:34.815Z,100.0
2022-12-24T12:23:06.902Z,100.0
2022-12-24T12:28:43.250Z,100.0
2022-12-24T12:34:14.360Z,100.0
2022-12-24T12:39:46.076Z,100.0
2022-12-24T12:45:17.920Z,100.0
2022-12-24T12:50:49.556Z,100.0
2022-12-24T12:56:21.263Z,100.0
2022-12-24T13:01:53.469Z,100.0
2022-12-24T13:07:24.792Z,100.0
2022-12-24T13:12:56.483Z,100.0
2022-12-24T13:18:28.119Z,98.62
2022-12-24T13:23:59.911Z,99.16
2022-12-24T13:29:36.102Z,95.85
2022-12-24T13:35:07.913Z,94.26
2022-12-24T13:40:39.499Z,93.25
2022-12-24T13:46:11.266Z,93.12
2022-12-24T13:51:42.966Z,93.73
2022-12-24T13:57:14.628Z,93.37
2022-12-24T14:02:46.635Z,93.06
2022-12-24T14:08:18.329Z,93.46
2022-12-24T14:13:49.830Z,93.09
2022-12-24T14:19:21.550Z,92.87
2022-12-24T14:24:53.277Z,95.23
2022-12-24T14:30:29.516Z,98.97
2022-12-24T14:36:01.134Z,100.0
2022-12-24T14:41:32.966Z,100.0
2022-12-24T14:47:05.308Z,100.0
2022-12-24T14:53:08.142Z,100.0
2022-12-24T14:58:07.870Z,99.6
2022-12-24T15:03:39.934Z,98.75
2022-12-24T15:09:12.015Z,98.88
2022-12-24T15:14:43.113Z,98.7
2022-12-24T15:20:14.849Z,98.48
2022-12-24T15:25:46.497Z,100.0
2022-12-24T15:31:23.394Z,100.0
2022-12-24T15:36:54.367Z,100.0
2022-12-24T15:42:26.043Z,100.0
2022-12-24T15:47:57.898Z,100.0
2022-12-24T15:53:29.589Z,100.0
2022-12-24T15:59:01.438Z,100.0
2022-12-24T16:04:33.590Z,100.0
2022-12-24T16:10:05.417Z,100.0
2022-12-24T16:15:36.704Z,100.0
2022-12-24T16:21:08.278Z,100.0
2022-12-24T16:26:40.289Z,100.0
2022-12-24T16:32:15.985Z,100.0
2022-12-24T16:37:47.760Z,100.0
2022-12-24T16:43:19.959Z,100.0
2022-12-24T16:48:51.201Z,100.0
2022-12-24T16:54:22.909Z,100.0
2022-12-24T16:59:55.066Z,100.0
2022-12-24T17:05:26.387Z,100.0
2022-12-24T17:10:58.146Z,100.0
2022-12-24T17:16:29.857Z,100.0
2022-12-24T17:22:01.538Z,100.0
2022-12-24T17:27:33.188Z,100.0
2022-12-24T17:33:15.216Z,100.0
2022-12-24T17:38:41.031Z,100.0
2022-12-24T17:44:12.805Z,100.0
2022-12-24T17:49:44.614Z,100.0
2022-12-24T17:55:16.310Z,100.0
2022-12-24T18:00:47.955Z,100.0
2022-12-24T18:06:19.672Z,100.0
2022-12-24T18:11:51.558Z,100.0
2022-12-24T18:17:23.380Z,100.0
2022-12-24T18:22:55.139Z,99.78
2022-12-24T18:28:26.654Z,98.32
2022-12-24T18:34:02.741Z,98.23
2022-12-24T18:39:34.535Z,97.11
2022-12-24T18:45:06.360Z,96.96
2022-12-24T18:50:37.881Z,96.4
2022-12-24T18:56:09.659Z,96.2
2022-12-24T19:01:41.591Z,96.17
2022-12-24T19:07:13.429Z,95.39
2022-12-24T19:12:44.777Z,95.55
2022-12-24T19:18:16.482Z,96.51
2022-12-24T19:23:48.294Z,96.5
2022-12-24T19:29:19.953Z,96.95
2022-12-24T19:34:56.018Z,97.54
2022-12-24T19:40:27.658Z,97.3
2022-12-24T19:45:59.635Z,97.43
2022-12-24T19:51:31.163Z,97.84
2022-12-24T19:57:02.890Z,97.93
2022-12-24T20:02:34.862Z,98.49
2022-12-24T20:08:06.346Z,98.39
2022-12-24T20:13:38.452Z,98.27
2022-12-24T20:19:09.793Z,98.73
2022-12-24T20:24:41.466Z,99.5
2022-12-24T20:30:13.211Z,99.65
2022-12-24T20:35:52.165Z,99.88
2022-12-24T20:41:23.007Z,99.39
2022-12-24T20:46:55.175Z,100.0
2022-12-24T20:52:26.568Z,100.0
2022-12-24T20:57:58.311Z,100.0
2022-12-24T21:03:30.103Z,100.0
2022-12-24T21:09:01.703Z,100.0
2022-12-24T21:14:33.483Z,100.0
2022-12-24T21:20:05.177Z,99.97
2022-12-24T21:25:37.029Z,99.71
2022-12-24T21:31:08.730Z,100.0
2022-12-24T21:36:44.754Z,100.0
2022-12-24T21:42:16.430Z,100.0
2022-12-24T21:47:48.156Z,100.0
2022-12-24T21:53:19.911Z,100.0
2022-12-24T21:58:51.674Z,100.0
2022-12-24T22:04:23.720Z,100.0
2022-12-24T22:09:55.310Z,100.0
2022-12-24T22:15:26.751Z,100.0
2022-12-24T22:20:58.613Z,100.0
2022-12-24T22:26:30.219Z,100.0
2022-12-24T22:32:01.903Z,100.0
2022-12-24T22:37:40.005Z,100.0
2022-12-24T22:43:11.920Z,100.0
2022-12-24T22:48:43.741Z,100.0
2022-12-24T22:54:15.180Z,100.0
2022-12-24T22:59:46.904Z,100.0
2022-12-24T23:05:18.507Z,100.0
2022-12-24T23:10:50.669Z,100.0
2022-12-24T23:16:22.211Z,100.0
2022-12-24T23:21:54.036Z,100.0
2022-12-24T23:27:25.606Z,100.0
2022-12-24T23:32:57.435Z,100.0
2022-12-24T23:38:33.463Z,100.0
2022-12-24T23:44:05.191Z,100.0
2022-12-24T23:49:36.853Z,100.0
2022-12-24T23:55:08.523Z,100.0
